Pagrindinis puslapis
METAR-TAF:

METAR-TAF

Oro uostai :

Takas, Tailandas

platuma: 16-53N, ilguma: 099-09E, Aukštis: 121 m

Dabartinis oras

Ataskaita buvo paskelbta 1 valandą ir 2 minutes, ne 08:00 UTC
Temperatūra 30°C
Drėgmė 49%
Slėgis
Matomumas: 6000 m
Mažai debesys ne aukštis 2800 ft

METAR: VTPT 170800Z /////KT 6000 FEW028 30/18 Q//// NOSIG

Laikas: 16:02 (09:02 UTC)

Prognozė

Ataskaita buvo paskelbta 4 valandos ir 2 minutes, ne 05:00 UTC
Prognozė galioja nuo 17 metu 06 UTC su 18 metu 06 UTC
Vėjas 5 kt iš Pietų/Pietryčių
Matomumas: 6000 m

TAF: VTPT 170500Z 1706/1806 16005KT 6000 NSC

Orai ataskaitas ir orų prognozės (METAR, TAF).

turimą stotys yra geltonos ir raudonos taškus žemėlapyje.

Perkelti pele per norėdami pamatyti stoties vardą.

Tada spustelėkite, norėdami matyti oro stebėjimo ir prognozės.

Norėdami pakeisti žemėlapį: spustelėkite ant žalios mygtukų su juodo kryžiaus žemyn,; žalią mygtuką su brūkšneliu, jei norite nutolinti; arba žalių rodyklių gretimoms žemėlapius.


METAR-TAF: